TNCM Airport Informations

Runway Information
Runway 10 Length 7546 ft width 148 ft
Elevation 13 ft Threshold 162 ft Heading 96
Runway 28 Length 7546 ft Width 148 ft
Elevation 9 ft Threshold 394 ft Heading 276
Airport Frequencies
Type APP Name JULIANA AP Frequency 128.95 MHZ
Type TWR Name JULIANA TW Frequency 118.7 MHZ
Airport Navaids
Type NDB Name St.mMarten Frequency 284 KHZ
Type VOR-DME Name St.mMarten Frequency 113000 KHZ
Airport Weather Information & NOTAM
ADDS - METARS form results

(1904 UTC 16 August 2022)
Data provider http://aviationweather.gov/metar/data/
 
Forecast for: TNCM (ST MAARTEN JULIA, SX)
Text: TNCM 161600Z 1618/1718 14005KT 9999 SCT018
Forecast period: 1800 UTC 16 August 2022 to 1800 UTC 17 August 2022
Forecast type: FROM: standard forecast or significant change
Winds: from the SE (140 degrees) at 6 MPH (5 knots; 2.6 m/s)
Visibility: 6 or more miles (10+ km)
Ceiling: at least 12,000 feet AGL
Clouds: scattered clouds at 1800 feet AGL
Weather: no significant weather forecast for this period